createdAt,value
2023-01-02T00:01:45.351Z,28.10
2023-01-02T00:04:15.629Z,28.10
2023-01-02T00:06:46.206Z,28.10
2023-01-02T00:09:16.871Z,28.10
2023-01-02T00:11:47.316Z,28.10
2023-01-02T00:14:17.630Z,28.20
2023-01-02T00:16:48.013Z,28.30
2023-01-02T00:19:18.272Z,28.40
2023-01-02T00:21:50.013Z,28.50
2023-01-02T00:24:20.685Z,28.70
2023-01-02T00:26:51.833Z,28.70
2023-01-02T00:29:22.115Z,28.80
2023-01-02T00:31:52.810Z,28.90
2023-01-02T00:34:23.507Z,29.00
2023-01-02T00:36:54.352Z,29.10
2023-01-02T00:39:25.132Z,29.30
2023-01-02T00:41:55.894Z,29.40
2023-01-02T00:44:26.189Z,29.50
2023-01-02T00:46:56.588Z,29.50
2023-01-02T00:49:26.951Z,29.70
2023-01-02T00:51:57.285Z,29.70
2023-01-02T00:54:27.660Z,29.80
2023-01-02T00:56:57.933Z,29.90
2023-01-02T00:59:28.204Z,30.10
2023-01-02T01:01:58.691Z,30.20
2023-01-02T01:04:30.447Z,30.30
2023-01-02T01:07:00.707Z,30.40
2023-01-02T01:09:32.089Z,30.60
2023-01-02T01:12:04.887Z,30.70
2023-01-02T01:14:36.219Z,30.70
2023-01-02T01:17:07.027Z,30.70
2023-01-02T01:19:39.681Z,30.80
2023-01-02T01:22:09.966Z,30.80
2023-01-02T01:24:41.611Z,30.90
2023-01-02T01:27:12.003Z,30.90
2023-01-02T01:29:42.451Z,30.90
2023-01-02T01:32:13.155Z,30.80
2023-01-02T01:34:44.196Z,30.90
2023-01-02T01:37:15.449Z,30.90
2023-01-02T01:39:45.811Z,30.90
2023-01-02T01:42:20.170Z,31.00
2023-01-02T01:44:58.338Z,31.10
2023-01-02T01:47:44.615Z,31.20
2023-01-02T01:50:20.962Z,31.40
2023-01-02T01:53:08.781Z,31.50
2023-01-02T01:56:02.813Z,31.50
2023-01-02T01:58:38.058Z,31.40
2023-01-02T02:01:08.488Z,31.40
2023-01-02T02:03:40.330Z,31.40
2023-01-02T02:06:12.416Z,31.30
2023-01-02T02:08:53.058Z,31.30
2023-01-02T02:11:23.516Z,31.30
2023-01-02T02:13:53.987Z,31.50
2023-01-02T02:16:46.934Z,31.50
2023-01-02T02:20:01.791Z,31.50
2023-01-02T02:22:51.014Z,31.60
2023-01-02T02:25:58.018Z,31.50
2023-01-02T02:28:51.342Z,31.60
2023-01-02T02:31:39.904Z,31.60
2023-01-02T02:34:54.919Z,31.60
2023-01-02T02:37:56.555Z,31.40
2023-01-02T02:40:47.863Z,31.20
2023-01-02T02:43:41.687Z,30.80
2023-01-02T02:46:11.954Z,30.50
2023-01-02T02:49:03.973Z,30.30
2023-01-02T02:51:49.340Z,30.30
2023-01-02T02:54:30.893Z,30.30
2023-01-02T02:57:06.208Z,30.50
2023-01-02T02:59:38.950Z,30.70
2023-01-02T03:02:09.700Z,31.00
2023-01-02T03:04:40.294Z,31.30
2023-01-02T03:07:20.013Z,31.60
2023-01-02T03:10:11.707Z,31.70
2023-01-02T03:13:14.855Z,31.70
2023-01-02T03:15:54.837Z,31.50
2023-01-02T03:18:45.418Z,31.40
2023-01-02T03:21:51.699Z,31.30
2023-01-02T03:24:24.181Z,31.10
2023-01-02T03:27:01.674Z,31.10
2023-01-02T03:29:34.827Z,31.10
2023-01-02T03:32:10.585Z,31.00
2023-01-02T03:34:44.400Z,30.90
2023-01-02T03:37:20.402Z,30.80
2023-01-02T03:39:57.045Z,30.60
2023-01-02T03:42:44.348Z,30.30
2023-01-02T03:45:23.996Z,30.10
2023-01-02T03:48:22.116Z,29.90
2023-01-02T03:50:56.069Z,29.70
2023-01-02T03:53:29.744Z,29.40
2023-01-02T03:56:26.648Z,29.30
2023-01-02T03:58:56.620Z,29.00
2023-01-02T04:01:40.765Z,28.90
2023-01-02T04:04:20.457Z,28.70
2023-01-02T04:06:57.542Z,28.50
2023-01-02T04:09:31.619Z,28.30
2023-01-02T04:12:26.223Z,28.20
2023-01-02T04:15:07.747Z,28.00
2023-01-02T04:18:22.889Z,27.90
2023-01-02T04:20:57.059Z,27.70
2023-01-02T04:24:03.378Z,27.60
2023-01-02T04:26:58.560Z,27.50
2023-01-02T04:29:28.842Z,27.40
2023-01-02T04:32:11.180Z,27.30
2023-01-02T04:34:43.390Z,27.20
2023-01-02T04:37:27.732Z,27.20
2023-01-02T04:40:03.539Z,27.10
2023-01-02T04:42:33.874Z,27.10
2023-01-02T04:45:04.178Z,27.10
2023-01-02T04:47:35.109Z,27.10
2023-01-02T04:50:06.924Z,27.10
2023-01-02T04:52:37.742Z,27.10
2023-01-02T04:55:12.563Z,27.10
2023-01-02T04:57:43.275Z,27.10
2023-01-02T05:00:14.110Z,27.20
2023-01-02T05:02:44.541Z,27.30
2023-01-02T05:05:14.859Z,27.30
2023-01-02T05:07:45.543Z,27.40
2023-01-02T05:10:16.374Z,27.50
2023-01-02T05:12:47.086Z,27.60
2023-01-02T05:15:17.432Z,27.60
2023-01-02T05:17:49.105Z,27.50
2023-01-02T05:20:19.390Z,27.50
2023-01-02T05:23:07.764Z,27.50
2023-01-02T05:25:38.853Z,27.50
2023-01-02T05:28:10.054Z,27.40
2023-01-02T05:30:43.109Z,27.50
2023-01-02T05:33:13.409Z,27.40
2023-01-02T05:35:43.672Z,27.30
2023-01-02T05:38:15.463Z,27.40
2023-01-02T05:40:46.139Z,27.30
2023-01-02T05:43:16.477Z,27.30
2023-01-02T05:45:48.048Z,27.20
2023-01-02T05:48:18.341Z,27.10
2023-01-02T05:50:48.952Z,27.00
2023-01-02T05:53:20.062Z,26.90
2023-01-02T05:55:50.347Z,26.90
2023-01-02T05:58:20.685Z,26.80
2023-01-02T06:00:51.025Z,26.80
2023-01-02T06:03:21.431Z,26.70
2023-01-02T06:05:51.752Z,26.70
2023-01-02T06:08:25.900Z,26.60
2023-01-02T06:10:56.175Z,26.50
2023-01-02T06:13:26.602Z,26.40
2023-01-02T06:15:59.490Z,26.40
2023-01-02T06:18:31.234Z,26.30
2023-01-02T06:21:07.009Z,26.20
2023-01-02T06:23:39.094Z,26.10
2023-01-02T06:26:12.658Z,26.00
2023-01-02T06:28:44.009Z,26.00
2023-01-02T06:31:17.135Z,26.00
2023-01-02T06:33:48.125Z,26.00
2023-01-02T06:36:20.628Z,26.00
2023-01-02T06:38:52.664Z,25.90
2023-01-02T06:41:23.248Z,25.90
2023-01-02T06:43:54.442Z,25.80
2023-01-02T06:46:26.503Z,25.80
2023-01-02T06:48:56.888Z,25.80
2023-01-02T06:51:27.379Z,25.70
2023-01-02T06:53:58.584Z,25.60
2023-01-02T06:56:28.977Z,25.50
2023-01-02T06:59:01.210Z,25.40
2023-01-02T07:01:32.035Z,25.40
2023-01-02T07:04:02.484Z,25.30
2023-01-02T07:06:33.183Z,25.20
2023-01-02T07:09:04.406Z,25.20
2023-01-02T07:11:35.360Z,25.20
2023-01-02T07:14:05.689Z,25.20
2023-01-02T07:16:35.976Z,25.10
2023-01-02T07:19:07.031Z,25.00
2023-01-02T07:21:38.981Z,25.00
2023-01-02T07:24:10.394Z,25.00
2023-01-02T07:26:40.734Z,25.00
2023-01-02T07:29:11.971Z,25.00
2023-01-02T07:31:42.739Z,25.00
2023-01-02T07:34:14.256Z,24.90
2023-01-02T07:36:44.969Z,24.90
2023-01-02T07:39:16.239Z,24.90
2023-01-02T07:41:47.463Z,24.80
2023-01-02T07:44:17.979Z,24.80
2023-01-02T07:46:48.963Z,24.80
2023-01-02T07:49:20.840Z,24.80
2023-01-02T07:51:51.317Z,24.80
2023-01-02T07:54:23.160Z,24.80
2023-01-02T07:56:54.580Z,24.80
2023-01-02T07:59:24.955Z,24.70
2023-01-02T08:01:55.425Z,24.70
2023-01-02T08:04:25.858Z,24.70
2023-01-02T08:06:56.309Z,24.80
2023-01-02T08:09:27.137Z,24.80
2023-01-02T08:11:58.581Z,24.80
2023-01-02T08:14:28.904Z,24.90
2023-01-02T08:16:59.414Z,24.90
2023-01-02T08:19:29.874Z,24.90
2023-01-02T08:22:00.159Z,24.90
2023-01-02T08:24:30.525Z,24.90
2023-01-02T08:27:01.687Z,24.90
2023-01-02T08:29:32.491Z,24.90
2023-01-02T08:32:03.213Z,24.90
2023-01-02T08:34:33.500Z,24.80
2023-01-02T08:37:03.887Z,24.70
2023-01-02T08:39:34.242Z,24.70
2023-01-02T08:42:04.955Z,24.70
2023-01-02T08:44:36.258Z,24.60
2023-01-02T08:47:07.369Z,24.60
2023-01-02T08:49:37.672Z,24.60
2023-01-02T08:52:08.376Z,24.50
2023-01-02T08:54:40.072Z,24.40
2023-01-02T08:57:10.774Z,24.40
2023-01-02T08:59:41.239Z,24.30
2023-01-02T09:02:16.974Z,24.30
2023-01-02T09:04:47.474Z,24.20
2023-01-02T09:07:18.332Z,24.20
2023-01-02T09:09:48.724Z,24.10
2023-01-02T09:12:19.297Z,24.20
2023-01-02T09:14:49.979Z,24.10
2023-01-02T09:17:20.408Z,24.10
2023-01-02T09:19:51.225Z,24.10
2023-01-02T09:22:21.792Z,24.10
2023-01-02T09:24:52.126Z,24.00
2023-01-02T09:27:23.395Z,24.00
2023-01-02T09:29:57.127Z,23.90
2023-01-02T09:32:28.035Z,23.90
2023-01-02T09:34:58.276Z,23.90
2023-01-02T09:37:30.246Z,23.80
2023-01-02T09:40:00.973Z,23.90
2023-01-02T09:42:31.952Z,23.90
2023-01-02T09:45:08.851Z,23.90
2023-01-02T09:47:43.343Z,23.80
2023-01-02T09:50:18.696Z,23.80
2023-01-02T09:52:56.345Z,23.80
2023-01-02T09:55:35.597Z,23.80
2023-01-02T09:58:24.703Z,23.70
2023-01-02T10:00:55.668Z,23.70
2023-01-02T10:03:41.154Z,23.60
2023-01-02T10:06:14.917Z,23.60
2023-01-02T10:09:11.642Z,23.40
2023-01-02T10:12:06.491Z,23.40
2023-01-02T10:14:55.321Z,23.20
2023-01-02T10:17:27.651Z,23.20
2023-01-02T10:20:10.675Z,23.00
2023-01-02T10:22:53.770Z,23.00
2023-01-02T10:25:27.029Z,22.90
2023-01-02T10:28:30.325Z,22.90
2023-01-02T10:31:27.945Z,22.90
2023-01-02T10:34:02.067Z,22.90
2023-01-02T10:36:37.275Z,22.90
2023-01-02T10:39:12.087Z,22.80
2023-01-02T10:41:44.227Z,22.70
2023-01-02T10:44:40.076Z,22.70
2023-01-02T10:47:40.725Z,22.60
2023-01-02T10:50:25.363Z,22.50
2023-01-02T10:53:08.191Z,22.40
2023-01-02T10:55:45.868Z,22.30
2023-01-02T10:58:29.886Z,22.30
2023-01-02T11:01:10.762Z,22.20
2023-01-02T11:03:41.535Z,22.10
2023-01-02T11:06:35.244Z,22.00
2023-01-02T11:09:39.763Z,22.00
2023-01-02T11:12:15.785Z,21.80
2023-01-02T11:14:46.464Z,21.80
2023-01-02T11:17:27.755Z,21.80
2023-01-02T11:20:00.744Z,21.70
2023-01-02T11:22:40.639Z,21.70
2023-01-02T11:25:43.657Z,21.60
2023-01-02T11:28:22.257Z,21.50
2023-01-02T11:31:03.752Z,21.40
2023-01-02T11:33:36.860Z,21.30
2023-01-02T11:36:09.963Z,21.30
2023-01-02T11:38:55.344Z,21.20
2023-01-02T11:42:14.458Z,21.20
2023-01-02T11:44:56.563Z,21.10
2023-01-02T11:47:37.282Z,21.10
2023-01-02T11:50:09.252Z,21.00
2023-01-02T11:52:52.795Z,20.90
2023-01-02T11:55:56.324Z,20.80
2023-01-02T11:58:52.366Z,20.80
2023-01-02T12:01:56.827Z,20.80
2023-01-02T12:04:28.683Z,20.80
2023-01-02T12:07:12.119Z,20.80
2023-01-02T12:09:50.711Z,20.70
2023-01-02T12:12:27.195Z,20.80
2023-01-02T12:15:34.794Z,20.70
2023-01-02T12:18:20.145Z,20.70
2023-01-02T12:21:08.745Z,20.70
2023-01-02T12:23:46.037Z,20.60
2023-01-02T12:26:29.941Z,20.60
2023-01-02T12:29:48.217Z,20.50
2023-01-02T12:32:29.049Z,20.40
2023-01-02T12:35:19.747Z,20.40
2023-01-02T12:38:01.135Z,20.30
2023-01-02T12:41:00.135Z,20.30
2023-01-02T12:43:54.134Z,20.20
2023-01-02T12:46:50.738Z,20.20
2023-01-02T12:50:18.925Z,20.20
2023-01-02T12:53:04.672Z,20.10
2023-01-02T12:55:51.630Z,20.10
2023-01-02T12:58:30.943Z,20.10
2023-01-02T13:01:08.082Z,20.00
2023-01-02T13:03:54.198Z,20.00
2023-01-02T13:06:45.814Z,20.00
2023-01-02T13:09:29.046Z,19.90
2023-01-02T13:12:24.805Z,19.90
2023-01-02T13:15:01.471Z,19.90
2023-01-02T13:17:40.696Z,19.80
2023-01-02T13:20:26.422Z,19.80
2023-01-02T13:23:12.239Z,19.70
2023-01-02T13:25:50.056Z,19.70
2023-01-02T13:28:24.763Z,19.60
2023-01-02T13:31:35.264Z,19.60
2023-01-02T13:33:55.458Z,19.60
2023-01-02T13:36:30.547Z,19.60
2023-01-02T13:39:20.471Z,19.60
2023-01-02T13:42:23.429Z,19.50
2023-01-02T13:44:58.814Z,19.40
2023-01-02T13:47:42.652Z,19.40
2023-01-02T13:50:41.269Z,19.40
2023-01-02T13:53:33.488Z,19.40
2023-01-02T13:56:05.187Z,19.40
2023-01-02T13:58:49.013Z,19.30
2023-01-02T14:01:30.051Z,19.30
2023-01-02T14:04:22.290Z,19.20
2023-01-02T14:06:54.216Z,19.20
2023-01-02T14:09:26.625Z,19.20
2023-01-02T14:12:14.912Z,19.20
2023-01-02T14:14:51.803Z,19.20
2023-01-02T14:17:28.769Z,19.10
2023-01-02T14:20:38.197Z,19.10
2023-01-02T14:23:13.670Z,19.00
2023-01-02T14:25:53.025Z,19.00
2023-01-02T14:28:31.674Z,19.00
2023-01-02T14:31:06.111Z,19.00
2023-01-02T14:33:41.242Z,18.90
2023-01-02T14:36:19.216Z,18.80
2023-01-02T14:39:01.962Z,18.80
2023-01-02T14:42:39.794Z,18.80
2023-01-02T14:45:17.233Z,18.80
2023-01-02T14:47:55.891Z,18.70
2023-01-02T14:50:32.772Z,18.60
2023-01-02T14:53:21.078Z,18.60
2023-01-02T14:55:54.811Z,18.60
2023-01-02T14:58:47.743Z,18.60
2023-01-02T15:01:43.554Z,18.60
2023-01-02T15:04:41.075Z,18.50
2023-01-02T15:07:46.675Z,18.50
2023-01-02T15:10:26.256Z,18.60
2023-01-02T15:13:06.714Z,18.50
2023-01-02T15:15:50.137Z,18.50
2023-01-02T15:18:36.359Z,18.50
2023-01-02T15:21:12.937Z,18.50
2023-01-02T15:23:51.023Z,18.40
2023-01-02T15:26:34.352Z,18.40
2023-01-02T15:29:22.523Z,18.40
2023-01-02T15:32:02.239Z,18.40
2023-01-02T15:34:37.194Z,18.40
2023-01-02T15:37:11.580Z,18.50
2023-01-02T15:39:45.770Z,18.40
2023-01-02T15:42:41.255Z,18.40
2023-01-02T15:45:17.597Z,18.30
2023-01-02T15:47:54.089Z,18.20
2023-01-02T15:50:28.725Z,18.20
2023-01-02T15:53:34.845Z,18.20
2023-01-02T15:56:06.508Z,18.20
2023-01-02T15:58:40.171Z,18.20
2023-01-02T16:01:25.237Z,18.20
2023-01-02T16:04:06.645Z,18.20
2023-01-02T16:06:48.619Z,18.10
2023-01-02T16:09:38.609Z,18.20
2023-01-02T16:12:20.748Z,18.20
2023-01-02T16:14:58.673Z,18.10
2023-01-02T16:17:31.201Z,18.00
2023-01-02T16:20:06.145Z,18.00
2023-01-02T16:22:57.466Z,18.00
2023-01-02T16:25:38.210Z,17.90
2023-01-02T16:28:35.884Z,17.90
2023-01-02T16:31:13.233Z,17.90
2023-01-02T16:33:46.189Z,17.90
2023-01-02T16:36:18.760Z,17.90
2023-01-02T16:39:01.862Z,17.90
2023-01-02T16:41:43.808Z,17.80
2023-01-02T16:44:22.300Z,17.80
2023-01-02T16:46:53.960Z,17.80
2023-01-02T16:49:26.830Z,17.80
2023-01-02T16:51:59.030Z,17.80
2023-01-02T16:54:30.645Z,17.80
2023-01-02T16:57:02.425Z,17.70
2023-01-02T16:59:33.205Z,17.70
2023-01-02T17:02:05.221Z,17.70
2023-01-02T17:04:36.197Z,17.60
2023-01-02T17:07:07.114Z,17.60
2023-01-02T17:09:37.851Z,17.60
2023-01-02T17:12:08.781Z,17.60
2023-01-02T17:14:39.792Z,17.50
2023-01-02T17:17:11.747Z,17.50
2023-01-02T17:19:41.989Z,17.40
2023-01-02T17:22:12.397Z,17.40
2023-01-02T17:24:44.979Z,17.40
2023-01-02T17:27:15.883Z,17.40
2023-01-02T17:29:48.605Z,17.30
2023-01-02T17:32:21.014Z,17.30
2023-01-02T17:34:59.179Z,17.30
2023-01-02T17:37:29.850Z,17.30
2023-01-02T17:40:01.531Z,17.20
2023-01-02T17:42:35.314Z,17.20
2023-01-02T17:45:06.856Z,17.20
2023-01-02T17:48:00.760Z,17.20
2023-01-02T17:50:29.345Z,17.20
2023-01-02T17:53:00.210Z,17.10
2023-01-02T17:55:31.167Z,17.10
2023-01-02T17:58:02.926Z,17.10
2023-01-02T18:00:33.743Z,17.10
2023-01-02T18:03:04.409Z,17.10
2023-01-02T18:05:38.601Z,17.10
2023-01-02T18:08:09.850Z,17.00
2023-01-02T18:10:42.824Z,17.00
2023-01-02T18:13:14.690Z,17.00
2023-01-02T18:15:45.671Z,17.00
2023-01-02T18:18:19.221Z,16.90
2023-01-02T18:20:49.588Z,16.90
2023-01-02T18:23:20.431Z,16.90
2023-01-02T18:25:54.051Z,16.90
2023-01-02T18:28:28.833Z,16.90
2023-01-02T18:31:03.832Z,16.90
2023-01-02T18:33:36.615Z,16.80
2023-01-02T18:36:31.556Z,16.90
2023-01-02T18:39:32.993Z,16.80
2023-01-02T18:42:14.135Z,16.80
2023-01-02T18:44:46.661Z,16.70
2023-01-02T18:47:39.566Z,16.70
2023-01-02T18:50:23.417Z,16.70
2023-01-02T18:52:55.383Z,16.70
2023-01-02T18:55:38.406Z,16.70
2023-01-02T18:58:36.373Z,16.70
2023-01-02T19:01:30.284Z,16.70
2023-01-02T19:04:20.600Z,16.60
2023-01-02T19:07:03.936Z,16.70
2023-01-02T19:09:38.481Z,16.70
2023-01-02T19:12:36.488Z,16.70
2023-01-02T19:15:38.379Z,16.70
2023-01-02T19:18:19.254Z,16.70
2023-01-02T19:20:56.958Z,16.70
2023-01-02T19:23:35.717Z,16.70
2023-01-02T19:26:27.170Z,16.70
2023-01-02T19:29:03.975Z,16.70
2023-01-02T19:31:44.299Z,16.70
2023-01-02T19:34:28.220Z,16.70
2023-01-02T19:37:19.581Z,16.70
2023-01-02T19:39:58.881Z,16.70
2023-01-02T19:42:33.976Z,16.70
2023-01-02T19:45:29.990Z,16.80
2023-01-02T19:48:02.452Z,16.80
2023-01-02T19:50:33.113Z,16.80
2023-01-02T19:53:03.865Z,16.90
2023-01-02T19:55:34.862Z,16.90
2023-01-02T19:58:07.347Z,16.90
2023-01-02T20:00:38.697Z,17.00
2023-01-02T20:03:09.659Z,17.10
2023-01-02T20:05:43.615Z,17.10
2023-01-02T20:08:18.568Z,17.20
2023-01-02T20:10:50.873Z,17.30
2023-01-02T20:13:21.722Z,17.30
2023-01-02T20:15:52.463Z,17.40
2023-01-02T20:18:25.538Z,17.40
2023-01-02T20:20:56.554Z,17.50
2023-01-02T20:23:27.243Z,17.50
2023-01-02T20:25:58.086Z,17.60
2023-01-02T20:28:29.098Z,17.70
2023-01-02T20:31:00.646Z,17.70
2023-01-02T20:33:32.555Z,17.80
2023-01-02T20:36:05.849Z,17.90
2023-01-02T20:38:41.195Z,18.00
2023-01-02T20:41:11.977Z,18.00
2023-01-02T20:43:43.687Z,18.10
2023-01-02T20:46:14.491Z,18.20
2023-01-02T20:48:45.227Z,18.30
2023-01-02T20:51:15.888Z,18.30
2023-01-02T20:53:46.621Z,18.40
2023-01-02T20:56:19.188Z,18.60
2023-01-02T20:58:49.812Z,18.80
2023-01-02T21:01:21.634Z,18.90
2023-01-02T21:03:54.125Z,19.20
2023-01-02T21:06:28.320Z,19.40
2023-01-02T21:09:16.254Z,19.70
2023-01-02T21:12:45.093Z,19.80
2023-01-02T21:15:03.513Z,20.00
2023-01-02T21:17:34.180Z,20.00
2023-01-02T21:20:04.918Z,20.10
2023-01-02T21:22:38.684Z,20.20
2023-01-02T21:25:18.433Z,20.20
2023-01-02T21:27:49.172Z,20.30
2023-01-02T21:30:22.574Z,20.40
2023-01-02T21:32:54.184Z,20.50
2023-01-02T21:35:29.470Z,20.80
2023-01-02T21:38:14.163Z,21.00
2023-01-02T21:40:45.193Z,21.20
2023-01-02T21:43:16.268Z,21.40
2023-01-02T21:45:47.071Z,21.50
2023-01-02T21:48:21.469Z,21.70
2023-01-02T21:50:54.632Z,22.00
2023-01-02T21:53:30.245Z,22.30
2023-01-02T21:56:11.470Z,22.70
2023-01-02T21:58:42.226Z,23.10
2023-01-02T22:01:34.059Z,23.50
2023-01-02T22:04:04.278Z,23.70
2023-01-02T22:06:36.776Z,24.10
2023-01-02T22:09:12.501Z,24.50
2023-01-02T22:11:59.319Z,24.70
2023-01-02T22:14:36.768Z,24.90
2023-01-02T22:17:10.050Z,25.30
2023-01-02T22:19:42.263Z,25.60
2023-01-02T22:22:17.200Z,25.70
2023-01-02T22:24:51.262Z,26.00
2023-01-02T22:27:23.990Z,26.10
2023-01-02T22:32:49.775Z,26.40
2023-01-02T22:35:20.604Z,26.50
2023-01-02T22:37:51.362Z,26.50
2023-01-02T22:40:53.559Z,26.70
2023-01-02T22:44:53.053Z,26.90
2023-01-02T22:47:34.960Z,27.10
2023-01-02T22:50:11.662Z,27.20
2023-01-02T22:52:44.861Z,27.40
2023-01-02T22:55:26.547Z,27.50
2023-01-02T22:57:57.613Z,27.60
2023-01-02T23:00:29.524Z,27.60
2023-01-02T23:03:00.760Z,27.50
2023-01-02T23:05:39.303Z,27.50
2023-01-02T23:08:09.837Z,27.40
2023-01-02T23:10:42.824Z,27.40
2023-01-02T23:13:13.799Z,27.50
2023-01-02T23:16:04.235Z,27.50
2023-01-02T23:18:56.652Z,27.60
2023-01-02T23:21:31.416Z,27.70
2023-01-02T23:24:02.891Z,27.70
2023-01-02T23:26:43.926Z,27.80
2023-01-02T23:29:15.540Z,28.00
2023-01-02T23:31:49.465Z,28.10
2023-01-02T23:34:26.305Z,28.10
2023-01-02T23:36:58.821Z,28.20
2023-01-02T23:39:33.473Z,28.30
2023-01-02T23:42:04.671Z,28.40
2023-01-02T23:44:36.507Z,28.60
2023-01-02T23:47:10.179Z,28.70
2023-01-02T23:49:43.709Z,28.80
2023-01-02T23:52:14.445Z,28.90
2023-01-02T23:54:45.442Z,29.10
2023-01-02T23:57:16.527Z,29.10
2023-01-02T23:59:46.899Z,29.30
